Time;durP1;ratioP1;P1;durP2;ratioP2;P2;SDS_P1;SDS_P2;PMS_P1;PMS_P2;Temp;Humidity;BMP_temperature;BMP_pressure;BME280_temperature;BME280_humidity;BME280_pressure;Samples;Min_cycle;Max_cycle;Signal;HPM_P1;HPM_P2
2023/07/29 00:00:03;;;;;;;56.50;2.30;;;;;;;;;;5091639;28;20443;-68
2023/07/29 00:02:32;;;;;;;56.50;2.23;;;;;;;;;;5091424;28;20480;-68
2023/07/29 00:04:59;;;;;;;56.57;2.40;;;;;;;;;;5091469;28;20950;-68
2023/07/29 00:07:26;;;;;;;56.60;2.80;;;;;;;;;;5091270;28;20446;-68
2023/07/29 00:09:53;;;;;;;56.90;2.50;;;;;;;;;;5091324;28;20549;-68
2023/07/29 00:12:20;;;;;;;56.70;2.37;;;;;;;;;;5091366;28;20474;-68
2023/07/29 00:14:47;;;;;;;56.23;2.30;;;;;;;;;;5091409;28;20446;-68
2023/07/29 00:17:14;;;;;;;56.30;2.40;;;;;;;;;;5091253;28;20822;-69
2023/07/29 00:19:43;;;;;;;56.60;2.57;;;;;;;;;;5091180;28;20457;-69
2023/07/29 00:22:10;;;;;;;56.50;2.43;;;;;;;;;;5091163;28;20912;-66
2023/07/29 00:24:37;;;;;;;56.57;2.30;;;;;;;;;;5091357;28;20457;-68
2023/07/29 00:27:04;;;;;;;56.40;2.30;;;;;;;;;;5091185;28;20442;-66
2023/07/29 00:29:31;;;;;;;56.67;2.37;;;;;;;;;;5091245;28;20450;-68
2023/07/29 00:31:58;;;;;;;56.27;2.47;;;;;;;;;;5090882;28;20466;-68
2023/07/29 00:34:26;;;;;;;56.37;2.53;;;;;;;;;;5091036;28;20984;-68
2023/07/29 00:36:54;;;;;;;56.43;2.37;;;;;;;;;;5091300;28;20448;-67
2023/07/29 00:39:22;;;;;;;56.90;2.57;;;;;;;;;;5090977;28;21035;-68
2023/07/29 00:41:49;;;;;;;56.30;2.40;;;;;;;;;;5090965;28;20545;-68
2023/07/29 00:44:16;;;;;;;56.20;2.20;;;;;;;;;;5091296;28;20446;-68
2023/07/29 00:46:44;;;;;;;56.60;2.53;;;;;;;;;;5090971;28;20450;-67
2023/07/29 00:49:11;;;;;;;56.57;2.27;;;;;;;;;;5091029;28;20849;-66
2023/07/29 00:51:38;;;;;;;56.40;2.40;;;;;;;;;;5090858;28;20447;-67
2023/07/29 00:54:06;;;;;;;56.30;2.40;;;;;;;;;;5090991;28;20458;-67
2023/07/29 00:56:33;;;;;;;56.20;2.10;;;;;;;;;;5090901;28;20446;-68
2023/07/29 00:59:01;;;;;;;56.17;2.13;;;;;;;;;;5095061;28;20492;-68
2023/07/29 01:01:29;;;;;;;56.23;2.23;;;;;;;;;;5094397;28;20507;-68
2023/07/29 01:03:56;;;;;;;56.43;2.30;;;;;;;;;;5094907;28;20470;-66
2023/07/29 01:06:27;;;;;;;56.37;2.10;;;;;;;;;;5093129;28;20647;-68
2023/07/29 01:09:00;;;;;;;56.60;2.23;;;;;;;;;;5094665;28;20435;-68
2023/07/29 01:11:35;;;;;;;56.77;2.70;;;;;;;;;;5094682;28;20450;-68
2023/07/29 01:14:05;;;;;;;56.40;2.20;;;;;;;;;;5094636;28;20499;-68
2023/07/29 01:16:36;;;;;;;56.27;2.27;;;;;;;;;;5094629;28;20454;-68
2023/07/29 01:19:06;;;;;;;56.80;2.37;;;;;;;;;;5094416;28;20478;-68
2023/07/29 01:21:35;;;;;;;56.57;2.43;;;;;;;;;;5089263;28;20507;-68
2023/07/29 01:24:03;;;;;;;56.40;2.50;;;;;;;;;;5082753;28;20477;-67
2023/07/29 01:26:30;;;;;;;56.67;2.40;;;;;;;;;;5085892;28;20822;-68
2023/07/29 01:28:58;;;;;;;56.50;2.20;;;;;;;;;;5083753;28;20443;-69
2023/07/29 01:31:29;;;;;;;57.10;2.90;;;;;;;;;;5088036;28;20446;-68
2023/07/29 01:33:59;;;;;;;56.23;2.10;;;;;;;;;;5083496;28;20956;-69
2023/07/29 01:36:29;;;;;;;56.70;2.30;;;;;;;;;;5073906;28;20451;-68
2023/07/29 01:38:58;;;;;;;58.27;2.60;;;;;;;;;;5073989;28;20494;-68
2023/07/29 01:41:26;;;;;;;57.00;2.50;;;;;;;;;;5073817;28;20447;-69
2023/07/29 01:43:54;;;;;;;56.57;2.47;;;;;;;;;;5073842;28;20470;-69
2023/07/29 01:46:21;;;;;;;56.57;2.40;;;;;;;;;;5073792;28;20455;-68
2023/07/29 01:48:48;;;;;;;56.63;2.40;;;;;;;;;;5074175;28;20456;-67
2023/07/29 01:51:15;;;;;;;56.60;2.23;;;;;;;;;;5073613;28;20452;-69
2023/07/29 01:53:43;;;;;;;56.40;2.30;;;;;;;;;;5073586;28;20498;-68
2023/07/29 01:56:10;;;;;;;56.37;2.30;;;;;;;;;;5073504;28;20804;-69
2023/07/29 01:58:38;;;;;;;57.00;3.27;;;;;;;;;;5073564;28;21011;-68
2023/07/29 02:01:06;;;;;;;56.50;2.50;;;;;;;;;;5073763;28;20447;-68
2023/07/29 02:03:33;;;;;;;56.77;2.60;;;;;;;;;;5073390;28;20475;-68
2023/07/29 02:06:00;;;;;;;56.27;2.40;;;;;;;;;;5073528;28;20466;-69
2023/07/29 02:08:27;;;;;;;56.57;2.80;;;;;;;;;;5072715;28;20439;-69
2023/07/29 02:10:54;;;;;;;56.70;2.60;;;;;;;;;;5072953;28;20451;-68
2023/07/29 02:13:21;;;;;;;56.57;2.20;;;;;;;;;;5073280;28;20839;-68
2023/07/29 02:15:49;;;;;;;56.40;2.20;;;;;;;;;;5072993;28;20462;-68
2023/07/29 02:18:16;;;;;;;56.37;2.30;;;;;;;;;;5073317;28;20479;-69
2023/07/29 02:20:49;;;;;;;57.20;2.50;;;;;;;;;;5072877;28;20451;-68
2023/07/29 02:23:16;;;;;;;56.50;2.27;;;;;;;;;;5073267;28;20479;-69
2023/07/29 02:25:43;;;;;;;56.47;2.27;;;;;;;;;;5072961;28;20459;-68
2023/07/29 02:28:10;;;;;;;56.50;2.10;;;;;;;;;;5073491;28;20453;-69
2023/07/29 02:30:38;;;;;;;56.33;2.13;;;;;;;;;;5072257;28;20470;-69
2023/07/29 02:33:06;;;;;;;56.33;2.20;;;;;;;;;;5072915;28;20463;-69
2023/07/29 02:35:33;;;;;;;56.33;2.20;;;;;;;;;;5072943;28;20542;-68
2023/07/29 02:38:00;;;;;;;56.30;2.23;;;;;;;;;;5072834;28;20451;-68
2023/07/29 02:40:29;;;;;;;56.47;2.30;;;;;;;;;;5072490;28;20958;-69
2023/07/29 02:42:56;;;;;;;56.53;2.53;;;;;;;;;;5072590;28;20570;-69
2023/07/29 02:45:23;;;;;;;56.47;2.50;;;;;;;;;;5072925;28;20939;-68
2023/07/29 02:47:50;;;;;;;56.37;2.20;;;;;;;;;;5072704;28;20462;-69
2023/07/29 02:50:18;;;;;;;56.37;2.30;;;;;;;;;;5072336;28;20455;-68
2023/07/29 02:52:46;;;;;;;56.30;2.20;;;;;;;;;;5072473;28;20467;-69
2023/07/29 02:55:13;;;;;;;56.27;2.30;;;;;;;;;;5072142;28;20466;-68
2023/07/29 02:57:40;;;;;;;56.37;2.10;;;;;;;;;;5072524;28;20451;-69
2023/07/29 03:00:08;;;;;;;56.47;2.47;;;;;;;;;;5071986;28;20479;-68
2023/07/29 03:02:35;;;;;;;56.57;2.30;;;;;;;;;;5072178;28;20467;-69
2023/07/29 03:05:02;;;;;;;56.60;2.50;;;;;;;;;;5072483;28;20451;-69
2023/07/29 03:07:31;;;;;;;56.47;2.30;;;;;;;;;;5072134;28;20451;-68
2023/07/29 03:09:58;;;;;;;56.40;2.10;;;;;;;;;;5072586;28;20769;-69
2023/07/29 03:12:26;;;;;;;56.17;2.13;;;;;;;;;;5071958;28;20467;-69
2023/07/29 03:14:53;;;;;;;56.70;2.60;;;;;;;;;;5072042;28;20981;-68
2023/07/29 03:17:20;;;;;;;56.17;2.10;;;;;;;;;;5071896;28;20451;-69
2023/07/29 03:19:47;;;;;;;56.40;2.17;;;;;;;;;;5072260;28;20565;-68
2023/07/29 03:22:14;;;;;;;56.30;2.20;;;;;;;;;;5073759;28;20474;-68
2023/07/29 03:24:43;;;;;;;56.23;2.33;;;;;;;;;;5076853;28;20448;-68
2023/07/29 03:27:10;;;;;;;56.50;2.50;;;;;;;;;;5079701;28;20478;-69
2023/07/29 03:29:37;;;;;;;56.30;2.30;;;;;;;;;;5088002;28;20469;-69
2023/07/29 03:32:05;;;;;;;56.33;2.20;;;;;;;;;;5091775;28;20462;-68
2023/07/29 03:34:32;;;;;;;56.43;2.13;;;;;;;;;;5092429;28;20442;-68
2023/07/29 03:36:59;;;;;;;56.33;2.10;;;;;;;;;;5091833;28;20814;-69
2023/07/29 03:39:26;;;;;;;56.43;2.40;;;;;;;;;;5092008;28;20478;-68
2023/07/29 03:41:55;;;;;;;56.27;2.30;;;;;;;;;;5091476;28;20446;-69
2023/07/29 03:44:22;;;;;;;56.47;2.33;;;;;;;;;;5070802;28;20454;-68
2023/07/29 03:46:49;;;;;;;56.37;2.00;;;;;;;;;;5082350;28;20461;-68
2023/07/29 03:49:16;;;;;;;56.27;2.23;;;;;;;;;;5076137;28;20927;-68
2023/07/29 03:51:43;;;;;;;56.50;2.30;;;;;;;;;;5083134;28;20833;-69
2023/07/29 03:54:10;;;;;;;56.47;2.33;;;;;;;;;;5091766;28;20468;-68
2023/07/29 03:56:38;;;;;;;56.50;2.20;;;;;;;;;;5091633;28;20935;-69
2023/07/29 03:59:07;;;;;;;56.47;2.50;;;;;;;;;;5091482;28;20478;-68
2023/07/29 04:01:34;;;;;;;56.47;2.30;;;;;;;;;;5091314;28;20818;-69
2023/07/29 04:04:01;;;;;;;56.57;2.37;;;;;;;;;;5091327;28;20480;-68
2023/07/29 04:06:28;;;;;;;56.47;2.43;;;;;;;;;;5091568;28;20822;-69
2023/07/29 04:08:55;;;;;;;56.90;3.00;;;;;;;;;;5091571;28;20567;-69
2023/07/29 04:11:22;;;;;;;57.00;2.60;;;;;;;;;;5091246;28;20442;-69
2023/07/29 04:13:49;;;;;;;56.73;2.87;;;;;;;;;;5091455;28;20469;-68
2023/07/29 04:16:18;;;;;;;56.37;2.50;;;;;;;;;;5091286;28;20454;-69
2023/07/29 04:18:45;;;;;;;56.30;2.30;;;;;;;;;;5091179;28;20478;-69
2023/07/29 04:21:12;;;;;;;56.47;2.60;;;;;;;;;;5091280;28;20449;-70
2023/07/29 04:23:40;;;;;;;56.60;2.40;;;;;;;;;;5091407;28;20462;-69
2023/07/29 04:26:07;;;;;;;56.60;2.97;;;;;;;;;;5091622;28;20454;-70
2023/07/29 04:28:34;;;;;;;56.40;2.43;;;;;;;;;;5091252;28;20450;-70
2023/07/29 04:31:01;;;;;;;56.60;2.23;;;;;;;;;;5090973;28;20454;-68
2023/07/29 04:33:31;;;;;;;56.80;2.50;;;;;;;;;;5094804;28;20473;-70
2023/07/29 04:35:58;;;;;;;56.67;2.37;;;;;;;;;;5095493;28;20448;-69
2023/07/29 04:38:26;;;;;;;56.43;2.53;;;;;;;;;;5095251;28;20950;-69
2023/07/29 04:40:53;;;;;;;56.60;2.30;;;;;;;;;;5094973;28;20946;-69
2023/07/29 04:43:20;;;;;;;56.50;2.30;;;;;;;;;;5095475;28;20466;-69
2023/07/29 04:45:47;;;;;;;56.40;2.40;;;;;;;;;;5095614;28;20457;-69
2023/07/29 04:48:14;;;;;;;57.00;2.40;;;;;;;;;;5095543;28;20468;-68
2023/07/29 04:50:42;;;;;;;56.57;2.30;;;;;;;;;;5095170;28;20443;-69
2023/07/29 04:53:09;;;;;;;56.47;2.40;;;;;;;;;;5095346;28;20498;-70
2023/07/29 04:55:36;;;;;;;56.17;2.20;;;;;;;;;;5094954;28;20462;-69
2023/07/29 04:58:04;;;;;;;56.67;2.60;;;;;;;;;;5094992;28;20442;-69
2023/07/29 05:00:31;;;;;;;56.50;2.30;;;;;;;;;;5094543;28;20482;-69
2023/07/29 05:02:58;;;;;;;56.50;2.50;;;;;;;;;;5095269;28;20472;-69
2023/07/29 05:05:25;;;;;;;56.17;2.43;;;;;;;;;;5094848;28;20931;-69
2023/07/29 05:07:54;;;;;;;56.20;2.43;;;;;;;;;;5094942;28;20464;-69
2023/07/29 05:10:21;;;;;;;56.60;2.80;;;;;;;;;;5094494;28;20791;-70
2023/07/29 05:12:48;;;;;;;56.40;2.23;;;;;;;;;;5087425;28;20540;-70
2023/07/29 05:15:15;;;;;;;56.40;2.50;;;;;;;;;;5074666;28;20439;-70
2023/07/29 05:17:42;;;;;;;56.37;2.53;;;;;;;;;;5074515;28;20451;-69
2023/07/29 05:20:10;;;;;;;56.50;2.30;;;;;;;;;;5073872;28;20493;-69
2023/07/29 05:22:37;;;;;;;56.97;2.53;;;;;;;;;;5071002;28;20472;-69
2023/07/29 05:25:06;;;;;;;56.30;2.30;;;;;;;;;;5085141;28;20443;-70
2023/07/29 05:27:33;;;;;;;56.27;2.20;;;;;;;;;;5085809;28;20461;-70
2023/07/29 05:30:00;;;;;;;56.37;2.50;;;;;;;;;;5086024;28;20447;-69
2023/07/29 05:32:27;;;;;;;56.07;2.33;;;;;;;;;;5094284;28;20892;-69
2023/07/29 05:34:55;;;;;;;56.13;2.20;;;;;;;;;;5094404;28;20446;-69
2023/07/29 05:37:22;;;;;;;56.37;2.20;;;;;;;;;;5094164;28;20446;-69
2023/07/29 05:39:49;;;;;;;56.40;2.10;;;;;;;;;;5093924;28;21011;-69
2023/07/29 05:42:17;;;;;;;56.17;2.07;;;;;;;;;;5094068;28;20543;-69
2023/07/29 05:44:45;;;;;;;56.30;2.30;;;;;;;;;;5092865;28;20818;-69
2023/07/29 05:47:12;;;;;;;56.37;2.10;;;;;;;;;;5093896;28;20934;-69
2023/07/29 05:49:39;;;;;;;56.67;2.47;;;;;;;;;;5094141;28;20449;-69
2023/07/29 05:52:07;;;;;;;56.23;2.80;;;;;;;;;;5093789;28;20470;-69
2023/07/29 05:54:34;;;;;;;56.00;2.30;;;;;;;;;;5093608;28;20970;-69
2023/07/29 05:57:01;;;;;;;57.67;3.50;;;;;;;;;;5094008;28;20447;-69
2023/07/29 05:59:30;;;;;;;56.23;2.10;;;;;;;;;;5094151;28;20515;-69
2023/07/29 06:01:57;;;;;;;56.27;2.10;;;;;;;;;;5093444;28;20454;-69
2023/07/29 06:04:24;;;;;;;56.40;2.43;;;;;;;;;;5093623;28;20950;-69
2023/07/29 06:06:51;;;;;;;56.30;1.97;;;;;;;;;;5093552;28;20449;-69
2023/07/29 06:09:18;;;;;;;56.40;2.20;;;;;;;;;;5093864;28;20443;-69
2023/07/29 06:11:45;;;;;;;55.97;2.20;;;;;;;;;;5093413;28;20879;-69
2023/07/29 06:14:13;;;;;;;56.77;2.80;;;;;;;;;;5093880;28;20453;-69
2023/07/29 06:16:41;;;;;;;56.10;2.10;;;;;;;;;;5093513;28;20450;-69
2023/07/29 06:19:09;;;;;;;56.57;2.63;;;;;;;;;;5093396;28;20825;-68
2023/07/29 06:21:36;;;;;;;56.27;2.23;;;;;;;;;;5093047;28;20476;-69
2023/07/29 06:24:04;;;;;;;56.03;2.30;;;;;;;;;;5093196;28;20473;-69
2023/07/29 06:26:31;;;;;;;56.70;2.20;;;;;;;;;;5093359;28;20455;-69
2023/07/29 06:28:58;;;;;;;56.10;2.30;;;;;;;;;;5093339;28;20442;-69
2023/07/29 06:31:25;;;;;;;56.67;2.43;;;;;;;;;;5093217;28;20481;-69
2023/07/29 06:33:54;;;;;;;56.47;2.20;;;;;;;;;;5092963;28;20471;-69
2023/07/29 06:36:21;;;;;;;55.87;2.10;;;;;;;;;;5093206;28;20455;-69
2023/07/29 06:38:48;;;;;;;56.53;2.60;;;;;;;;;;5092987;28;20450;-69
2023/07/29 06:41:16;;;;;;;56.47;2.40;;;;;;;;;;5092900;28;20486;-69
2023/07/29 06:43:43;;;;;;;56.03;2.40;;;;;;;;;;5092822;28;20471;-68
2023/07/29 06:46:10;;;;;;;56.90;2.53;;;;;;;;;;5092801;28;20953;-69
2023/07/29 06:48:38;;;;;;;56.20;2.30;;;;;;;;;;5092678;28;20456;-69
2023/07/29 06:51:06;;;;;;;56.10;2.30;;;;;;;;;;5092636;28;20450;-69
2023/07/29 06:53:33;;;;;;;56.03;2.30;;;;;;;;;;5092587;28;20466;-68
2023/07/29 06:56:00;;;;;;;56.30;2.30;;;;;;;;;;5092156;28;20473;-69
2023/07/29 06:58:27;;;;;;;56.40;2.53;;;;;;;;;;5092700;28;20442;-68
2023/07/29 07:00:54;;;;;;;56.47;2.20;;;;;;;;;;5092191;28;20990;-70
2023/07/29 07:03:21;;;;;;;56.07;2.10;;;;;;;;;;5092278;28;20470;-68
2023/07/29 07:05:49;;;;;;;56.47;2.40;;;;;;;;;;5092808;28;20446;-70
2023/07/29 07:08:17;;;;;;;56.40;2.37;;;;;;;;;;5092386;28;20977;-69
2023/07/29 07:10:44;;;;;;;56.57;2.30;;;;;;;;;;5076683;28;20459;-69
2023/07/29 07:13:11;;;;;;;56.97;2.80;;;;;;;;;;5071020;28;20472;-69
2023/07/29 07:15:38;;;;;;;56.30;2.40;;;;;;;;;;5071807;28;20530;-69
2023/07/29 07:18:05;;;;;;;56.27;2.40;;;;;;;;;;5072461;28;20447;-69
2023/07/29 07:20:32;;;;;;;57.13;2.77;;;;;;;;;;5071620;28;20483;-69
2023/07/29 07:22:59;;;;;;;56.30;2.53;;;;;;;;;;5068112;28;20840;-69
2023/07/29 07:25:28;;;;;;;56.30;2.30;;;;;;;;;;5078181;28;20451;-69
2023/07/29 07:27:55;;;;;;;56.13;2.30;;;;;;;;;;5081804;28;20458;-69
2023/07/29 07:30:22;;;;;;;56.37;2.20;;;;;;;;;;5084546;28;20443;-69
2023/07/29 07:32:50;;;;;;;56.23;2.13;;;;;;;;;;5092652;28;20971;-70
2023/07/29 07:35:18;;;;;;;56.50;2.30;;;;;;;;;;5092505;28;20965;-69
2023/07/29 07:37:45;;;;;;;56.33;2.37;;;;;;;;;;5092276;28;20446;-70
2023/07/29 07:40:13;;;;;;;56.37;2.50;;;;;;;;;;5092203;28;20474;-70
2023/07/29 07:42:41;;;;;;;56.27;2.47;;;;;;;;;;5091904;28;20462;-70
2023/07/29 07:45:08;;;;;;;56.37;2.20;;;;;;;;;;5091758;28;20939;-70
2023/07/29 07:47:35;;;;;;;56.17;2.10;;;;;;;;;;5091866;28;20446;-69
2023/07/29 07:50:02;;;;;;;56.33;2.20;;;;;;;;;;5091611;28;20930;-70
2023/07/29 07:52:29;;;;;;;56.30;2.13;;;;;;;;;;5091755;28;20462;-70
2023/07/29 07:54:56;;;;;;;56.03;2.00;;;;;;;;;;5091481;28;20466;-70
2023/07/29 07:57:24;;;;;;;56.37;2.20;;;;;;;;;;5091347;28;20822;-70
2023/07/29 07:59:52;;;;;;;56.43;2.10;;;;;;;;;;5091785;28;20490;-70
2023/07/29 08:02:20;;;;;;;56.27;2.60;;;;;;;;;;5091357;28;20853;-68
2023/07/29 08:04:47;;;;;;;56.40;2.10;;;;;;;;;;5091695;28;20849;-70
2023/07/29 08:07:14;;;;;;;56.30;2.30;;;;;;;;;;5090673;28;20454;-70
2023/07/29 08:09:41;;;;;;;56.03;2.33;;;;;;;;;;5091849;28;20447;-70
2023/07/29 08:12:08;;;;;;;56.80;2.20;;;;;;;;;;5091106;28;20466;-70
2023/07/29 08:14:36;;;;;;;56.13;2.10;;;;;;;;;;5091374;28;20474;-69
2023/07/29 08:17:04;;;;;;;56.37;2.20;;;;;;;;;;5091488;28;20829;-70
2023/07/29 08:19:31;;;;;;;55.97;2.00;;;;;;;;;;5091527;28;20449;-70
2023/07/29 08:21:58;;;;;;;56.30;2.37;;;;;;;;;;5090986;28;20482;-70
2023/07/29 08:24:26;;;;;;;56.30;2.00;;;;;;;;;;5091232;28;20716;-70
2023/07/29 08:26:53;;;;;;;56.00;2.23;;;;;;;;;;5091395;28;20450;-70
2023/07/29 08:29:20;;;;;;;56.17;2.10;;;;;;;;;;5091489;28;20442;-69
2023/07/29 08:31:47;;;;;;;55.97;1.93;;;;;;;;;;5090892;28;20926;-70
2023/07/29 08:34:15;;;;;;;56.27;2.20;;;;;;;;;;5091245;28;20442;-68
2023/07/29 08:36:42;;;;;;;56.17;1.97;;;;;;;;;;5091311;28;20447;-69
2023/07/29 08:39:10;;;;;;;55.97;2.00;;;;;;;;;;5091024;28;20457;-69
2023/07/29 08:41:39;;;;;;;55.97;2.47;;;;;;;;;;5090725;28;21048;-70
2023/07/29 08:44:08;;;;;;;56.00;1.90;;;;;;;;;;5091460;28;20452;-70
2023/07/29 08:46:35;;;;;;;56.03;2.00;;;;;;;;;;5090978;28;20457;-70
2023/07/29 08:49:03;;;;;;;56.50;2.23;;;;;;;;;;5091246;28;20801;-70
2023/07/29 08:51:32;;;;;;;56.07;2.17;;;;;;;;;;5090506;28;20442;-70
2023/07/29 08:54:00;;;;;;;55.97;2.10;;;;;;;;;;5091250;28;20486;-70
2023/07/29 08:56:27;;;;;;;56.37;2.10;;;;;;;;;;5090657;28;20446;-69
2023/07/29 08:58:55;;;;;;;55.87;1.93;;;;;;;;;;5091006;28;20451;-70
2023/07/29 09:01:22;;;;;;;56.57;2.13;;;;;;;;;;5089754;28;20474;-70
2023/07/29 09:03:49;;;;;;;56.03;1.87;;;;;;;;;;5090893;28;20469;-69
2023/07/29 09:06:17;;;;;;;56.47;2.30;;;;;;;;;;5091006;28;20450;-70
2023/07/29 09:08:46;;;;;;;56.20;1.90;;;;;;;;;;5091011;28;20447;-70
2023/07/29 09:11:16;;;;;;;56.20;1.80;;;;;;;;;;5090718;28;20815;-69
2023/07/29 09:13:43;;;;;;;56.30;1.70;;;;;;;;;;5090790;28;20994;-70
2023/07/29 09:16:10;;;;;;;56.20;1.90;;;;;;;;;;5090750;28;20991;-70
2023/07/29 09:18:37;;;;;;;56.70;2.30;;;;;;;;;;5092396;28;20489;-68
2023/07/29 09:21:04;;;;;;;56.17;1.97;;;;;;;;;;5094343;28;20997;-71
2023/07/29 09:23:40;;;;;;;56.93;2.63;;;;;;;;;;5094541;28;20493;-69
2023/07/29 09:26:08;;;;;;;56.20;1.70;;;;;;;;;;5094537;28;20496;-70
2023/07/29 09:28:36;;;;;;;55.97;1.80;;;;;;;;;;5094657;28;20447;-70
2023/07/29 09:31:03;;;;;;;56.27;2.10;;;;;;;;;;5094266;28;20453;-70
2023/07/29 09:33:32;;;;;;;56.07;1.70;;;;;;;;;;5094394;28;20467;-70
2023/07/29 09:35:59;;;;;;;55.77;1.90;;;;;;;;;;5094417;28;20548;-70
2023/07/29 09:38:29;;;;;;;56.30;1.80;;;;;;;;;;5094308;28;20450;-70
2023/07/29 09:40:57;;;;;;;56.30;2.20;;;;;;;;;;5093913;28;20834;-70
2023/07/29 09:43:30;;;;;;;56.80;2.20;;;;;;;;;;5094004;28;21223;-71
2023/07/29 09:46:01;;;;;;;56.07;1.80;;;;;;;;;;5094021;28;20938;-71
2023/07/29 09:48:28;;;;;;;56.67;3.30;;;;;;;;;;5094216;28;20446;-71
2023/07/29 09:50:55;;;;;;;56.40;2.33;;;;;;;;;;5093733;28;20446;-71
2023/07/29 09:53:23;;;;;;;56.27;2.03;;;;;;;;;;5093887;28;20584;-70
2023/07/29 09:55:50;;;;;;;57.20;2.77;;;;;;;;;;5093821;28;20466;-71
2023/07/29 09:58:20;;;;;;;55.97;1.77;;;;;;;;;;5093970;28;20504;-71
2023/07/29 10:00:49;;;;;;;56.27;1.83;;;;;;;;;;5093791;28;20850;-70
2023/07/29 10:03:16;;;;;;;56.60;1.97;;;;;;;;;;5093733;28;20973;-70
2023/07/29 10:05:43;;;;;;;56.13;1.77;;;;;;;;;;5093796;28;20829;-71
2023/07/29 10:08:11;;;;;;;55.87;1.70;;;;;;;;;;5093781;28;20501;-71
2023/07/29 10:10:38;;;;;;;55.80;1.77;;;;;;;;;;5093378;28;20443;-71
2023/07/29 10:13:06;;;;;;;55.90;2.13;;;;;;;;;;5093628;28;20478;-70
2023/07/29 10:15:33;;;;;;;55.97;1.87;;;;;;;;;;5093655;28;20450;-70
2023/07/29 10:18:03;;;;;;;56.20;1.80;;;;;;;;;;5093570;28;20450;-70
2023/07/29 10:20:31;;;;;;;55.87;1.60;;;;;;;;;;5093202;28;20446;-70
2023/07/29 10:23:00;;;;;;;55.67;1.90;;;;;;;;;;5093397;28;20939;-71
2023/07/29 10:25:31;;;;;;;56.50;2.00;;;;;;;;;;5093518;28;20442;-70
2023/07/29 10:28:02;;;;;;;56.70;1.90;;;;;;;;;;5093567;28;20822;-70
2023/07/29 10:30:30;;;;;;;55.97;1.70;;;;;;;;;;5092407;28;20453;-70
2023/07/29 10:32:59;;;;;;;56.27;1.70;;;;;;;;;;5093125;28;20982;-71
2023/07/29 10:35:28;;;;;;;56.10;1.90;;;;;;;;;;5093157;28;20798;-71
2023/07/29 10:37:56;;;;;;;56.30;2.00;;;;;;;;;;5093015;28;20457;-70
2023/07/29 10:40:23;;;;;;;56.07;1.70;;;;;;;;;;5092888;28;20439;-71
2023/07/29 10:43:03;;;;;;;56.27;1.60;;;;;;;;;;5093092;28;20935;-70
2023/07/29 10:45:38;;;;;;;56.27;1.83;;;;;;;;;;5093044;28;20880;-70
2023/07/29 10:48:08;;;;;;;56.40;2.10;;;;;;;;;;5092964;28;20457;-70
2023/07/29 10:50:36;;;;;;;56.00;2.30;;;;;;;;;;5092871;28;20874;-71
2023/07/29 10:53:04;;;;;;;55.77;1.80;;;;;;;;;;5092840;28;20466;-70
2023/07/29 10:55:33;;;;;;;55.87;1.70;;;;;;;;;;5092628;28;21031;-70
2023/07/29 10:58:08;;;;;;;55.73;1.70;;;;;;;;;;5092684;28;20447;-69
2023/07/29 11:00:36;;;;;;;56.00;1.83;;;;;;;;;;5092718;28;20453;-70
2023/07/29 11:03:03;;;;;;;55.97;1.70;;;;;;;;;;5092451;28;20468;-71
2023/07/29 11:05:45;;;;;;;55.57;1.57;;;;;;;;;;5092823;28;20442;-70
2023/07/29 11:08:19;;;;;;;55.90;1.50;;;;;;;;;;5092654;28;20450;-70
2023/07/29 11:10:58;;;;;;;56.00;1.80;;;;;;;;;;5092291;28;20442;-71
2023/07/29 11:13:27;;;;;;;56.20;1.70;;;;;;;;;;5092754;28;20470;-70
2023/07/29 11:15:56;;;;;;;55.83;1.57;;;;;;;;;;5092315;28;20442;-71
2023/07/29 11:18:23;;;;;;;55.47;1.60;;;;;;;;;;5092227;28;20455;-71
2023/07/29 11:20:51;;;;;;;55.87;1.53;;;;;;;;;;5091892;28;20457;-70
2023/07/29 11:23:19;;;;;;;56.10;1.60;;;;;;;;;;5092170;28;20463;-71
2023/07/29 11:25:46;;;;;;;55.90;1.60;;;;;;;;;;5091921;28;20439;-71
2023/07/29 11:28:13;;;;;;;56.10;1.83;;;;;;;;;;5092481;28;20449;-70
2023/07/29 11:30:41;;;;;;;55.70;1.70;;;;;;;;;;5091804;28;20439;-71
2023/07/29 11:33:08;;;;;;;55.67;1.60;;;;;;;;;;5092060;28;20466;-71
2023/07/29 11:35:35;;;;;;;55.97;2.10;;;;;;;;;;5091983;28;20439;-71
2023/07/29 11:38:03;;;;;;;55.80;1.60;;;;;;;;;;5091913;28;20446;-71
2023/07/29 11:40:30;;;;;;;55.87;1.50;;;;;;;;;;5091810;28;20456;-71
2023/07/29 11:42:58;;;;;;;55.90;1.50;;;;;;;;;;5091850;28;20501;-70
2023/07/29 11:45:25;;;;;;;55.90;1.60;;;;;;;;;;5091850;28;20460;-71
2023/07/29 11:47:52;;;;;;;55.87;1.60;;;;;;;;;;5091773;28;20466;-71
2023/07/29 11:50:19;;;;;;;55.60;1.47;;;;;;;;;;5091776;28;20443;-71
2023/07/29 11:52:47;;;;;;;55.90;1.50;;;;;;;;;;5091726;28;20515;-71
2023/07/29 11:55:16;;;;;;;55.80;1.67;;;;;;;;;;5091765;28;20468;-71
2023/07/29 11:57:44;;;;;;;55.47;1.40;;;;;;;;;;5091809;28;20446;-71
2023/07/29 12:00:12;;;;;;;56.10;1.70;;;;;;;;;;5091403;28;20450;-70
2023/07/29 12:02:40;;;;;;;56.57;1.90;;;;;;;;;;5091369;28;20903;-71
2023/07/29 12:05:07;;;;;;;56.10;1.97;;;;;;;;;;5091454;28;20447;-71
2023/07/29 12:07:35;;;;;;;55.73;1.70;;;;;;;;;;5091611;28;20454;-71
2023/07/29 12:10:03;;;;;;;55.60;1.50;;;;;;;;;;5091488;28;20804;-68
2023/07/29 12:12:31;;;;;;;55.63;1.70;;;;;;;;;;5091252;28;20974;-71
2023/07/29 12:14:59;;;;;;;55.43;1.60;;;;;;;;;;5091527;28;20454;-69
2023/07/29 12:17:26;;;;;;;55.57;1.43;;;;;;;;;;5091568;28;20442;-72
2023/07/29 12:19:56;;;;;;;55.57;1.50;;;;;;;;;;5091210;28;20520;-71
2023/07/29 12:22:23;;;;;;;55.40;1.50;;;;;;;;;;5091149;28;20486;-71
2023/07/29 12:24:52;;;;;;;55.73;1.60;;;;;;;;;;5091532;28;20464;-72
2023/07/29 12:27:20;;;;;;;55.60;1.40;;;;;;;;;;5091313;28;20499;-71
2023/07/29 12:29:48;;;;;;;55.50;1.50;;;;;;;;;;5091289;28;20446;-71
2023/07/29 12:32:15;;;;;;;55.47;1.60;;;;;;;;;;5090870;28;20539;-71
2023/07/29 12:34:43;;;;;;;55.47;1.50;;;;;;;;;;5091148;28;20982;-71
2023/07/29 12:37:10;;;;;;;55.47;1.47;;;;;;;;;;5091041;28;20941;-71
2023/07/29 12:39:41;;;;;;;55.70;1.83;;;;;;;;;;5091415;28;20923;-69
2023/07/29 12:42:08;;;;;;;55.37;1.37;;;;;;;;;;5090792;28;20493;-69
2023/07/29 12:44:36;;;;;;;55.37;1.50;;;;;;;;;;5091043;28;20446;-67
2023/07/29 12:47:05;;;;;;;55.37;1.60;;;;;;;;;;5090927;28;20460;-69
2023/07/29 12:49:32;;;;;;;55.37;1.60;;;;;;;;;;5091093;28;21021;-69
2023/07/29 12:51:59;;;;;;;55.37;1.57;;;;;;;;;;5090736;28;20516;-67
2023/07/29 12:54:27;;;;;;;55.00;1.73;;;;;;;;;;5094323;28;20458;-69
2023/07/29 12:56:54;;;;;;;55.30;1.40;;;;;;;;;;5095099;28;20447;-69
2023/07/29 12:59:21;;;;;;;55.30;1.60;;;;;;;;;;5095220;28;20442;-68
2023/07/29 13:01:48;;;;;;;55.53;2.07;;;;;;;;;;5094655;28;20482;-68
2023/07/29 13:04:16;;;;;;;55.43;1.87;;;;;;;;;;5095119;28;20838;-68
2023/07/29 13:06:43;;;;;;;55.13;1.50;;;;;;;;;;5095051;28;20447;-69
2023/07/29 13:09:11;;;;;;;55.17;1.70;;;;;;;;;;5094869;28;20827;-68
2023/07/29 13:11:38;;;;;;;55.40;1.43;;;;;;;;;;5094519;28;20446;-71
2023/07/29 13:14:05;;;;;;;55.37;1.40;;;;;;;;;;5094569;28;20450;-71
2023/07/29 13:16:32;;;;;;;55.77;1.50;;;;;;;;;;5094918;28;20446;-71
2023/07/29 13:18:59;;;;;;;55.40;1.50;;;;;;;;;;5094546;28;20450;-71
2023/07/29 13:21:28;;;;;;;55.10;1.60;;;;;;;;;;5094440;28;20477;-70
2023/07/29 13:23:55;;;;;;;55.30;1.50;;;;;;;;;;5094491;28;20493;-71
2023/07/29 13:26:22;;;;;;;55.70;1.60;;;;;;;;;;5094429;28;20554;-71
2023/07/29 13:28:49;;;;;;;55.50;1.67;;;;;;;;;;5094723;28;20442;-70
2023/07/29 13:31:16;;;;;;;55.27;1.60;;;;;;;;;;5094113;28;21009;-71
2023/07/29 13:33:43;;;;;;;55.37;1.73;;;;;;;;;;5094552;28;20462;-71
2023/07/29 13:36:10;;;;;;;55.07;1.50;;;;;;;;;;5094276;28;20461;-71
2023/07/29 13:38:39;;;;;;;55.70;1.73;;;;;;;;;;5094360;28;20829;-69
2023/07/29 13:41:06;;;;;;;55.40;1.60;;;;;;;;;;5093895;28;20450;-69
2023/07/29 13:43:33;;;;;;;55.60;1.60;;;;;;;;;;5093907;28;21001;-68
2023/07/29 13:46:00;;;;;;;55.67;1.60;;;;;;;;;;5094407;28;20446;-68
2023/07/29 13:48:27;;;;;;;55.87;1.70;;;;;;;;;;5094314;28;20449;-67
2023/07/29 13:50:54;;;;;;;55.73;1.43;;;;;;;;;;5093812;28;20447;-68
2023/07/29 13:53:21;;;;;;;56.20;2.07;;;;;;;;;;5093951;28;20465;-67
2023/07/29 13:55:50;;;;;;;56.00;1.70;;;;;;;;;;5094186;28;20981;-68
2023/07/29 13:58:17;;;;;;;56.10;1.80;;;;;;;;;;5094016;28;20447;-68
2023/07/29 14:00:44;;;;;;;56.00;1.70;;;;;;;;;;5093717;28;20457;-67
2023/07/29 14:03:11;;;;;;;56.27;1.80;;;;;;;;;;5093882;28;20584;-68
2023/07/29 14:05:38;;;;;;;56.30;1.70;;;;;;;;;;5092471;28;20454;-68
2023/07/29 14:08:06;;;;;;;55.97;1.50;;;;;;;;;;5093692;28;20446;-68
2023/07/29 14:10:33;;;;;;;56.00;1.90;;;;;;;;;;5093887;28;20449;-71
2023/07/29 14:13:01;;;;;;;56.07;1.70;;;;;;;;;;5093669;28;20473;-69
2023/07/29 14:15:29;;;;;;;56.27;2.00;;;;;;;;;;5093605;28;20446;-70
2023/07/29 14:17:56;;;;;;;59.87;1.80;;;;;;;;;;5093499;28;20446;-69
2023/07/29 14:20:23;;;;;;;56.10;1.70;;;;;;;;;;5093226;28;20452;-70
2023/07/29 14:22:50;;;;;;;56.20;1.60;;;;;;;;;;5093177;28;21006;-69
2023/07/29 14:25:18;;;;;;;56.30;1.90;;;;;;;;;;5093492;28;20553;-70
2023/07/29 14:27:45;;;;;;;56.20;1.70;;;;;;;;;;5093709;28;20450;-71
2023/07/29 14:30:14;;;;;;;55.87;1.50;;;;;;;;;;5093508;28;20643;-71
2023/07/29 14:32:41;;;;;;;55.67;1.50;;;;;;;;;;5093139;28;20458;-71